sensor_id;sensor_type;location;lat;lon;timestamp;P1;durP1;ratioP1;P2;durP2;ratioP2
12725;SDS011;6427;49.754;6.106;2022-07-12T00:00:05;12.27;;;10.07;;
12725;SDS011;6427;49.754;6.106;2022-07-12T00:02:32;14.03;;;10.10;;
12725;SDS011;6427;49.754;6.106;2022-07-12T00:05:00;13.10;;;10.30;;
12725;SDS011;6427;49.754;6.106;2022-07-12T00:07:28;15.87;;;10.60;;
12725;SDS011;6427;49.754;6.106;2022-07-12T00:09:55;14.60;;;12.13;;
12725;SDS011;6427;49.754;6.106;2022-07-12T00:12:23;14.43;;;10.17;;
12725;SDS011;6427;49.754;6.106;2022-07-12T00:14:50;12.77;;;9.93;;
12725;SDS011;6427;49.754;6.106;2022-07-12T00:17:18;14.77;;;12.25;;
12725;SDS011;6427;49.754;6.106;2022-07-12T00:19:46;13.83;;;10.63;;
12725;SDS011;6427;49.754;6.106;2022-07-12T00:22:13;15.30;;;10.93;;
12725;SDS011;6427;49.754;6.106;2022-07-12T00:24:41;23.10;;;11.00;;
12725;SDS011;6427;49.754;6.106;2022-07-12T00:27:09;11.63;;;9.90;;
12725;SDS011;6427;49.754;6.106;2022-07-12T00:29:37;15.00;;;12.63;;
12725;SDS011;6427;49.754;6.106;2022-07-12T00:32:05;14.80;;;11.10;;
12725;SDS011;6427;49.754;6.106;2022-07-12T00:34:33;14.47;;;11.00;;
12725;SDS011;6427;49.754;6.106;2022-07-12T00:37:01;12.97;;;10.07;;
12725;SDS011;6427;49.754;6.106;2022-07-12T00:39:29;15.38;;;12.32;;
12725;SDS011;6427;49.754;6.106;2022-07-12T00:41:57;13.07;;;10.17;;
12725;SDS011;6427;49.754;6.106;2022-07-12T00:44:25;14.43;;;11.13;;
12725;SDS011;6427;49.754;6.106;2022-07-12T00:46:54;15.87;;;10.13;;
12725;SDS011;6427;49.754;6.106;2022-07-12T00:49:22;14.43;;;10.13;;
12725;SDS011;6427;49.754;6.106;2022-07-12T00:51:50;14.45;;;12.02;;
12725;SDS011;6427;49.754;6.106;2022-07-12T00:54:18;14.93;;;10.57;;
12725;SDS011;6427;49.754;6.106;2022-07-12T00:56:46;13.73;;;10.40;;
12725;SDS011;6427;49.754;6.106;2022-07-12T00:59:13;12.90;;;9.93;;
12725;SDS011;6427;49.754;6.106;2022-07-12T01:01:41;13.97;;;10.40;;
12725;SDS011;6427;49.754;6.106;2022-07-12T01:04:08;13.47;;;10.30;;
12725;SDS011;6427;49.754;6.106;2022-07-12T01:06:39;15.27;;;10.97;;
12725;SDS011;6427;49.754;6.106;2022-07-12T01:09:09;14.53;;;10.73;;
12725;SDS011;6427;49.754;6.106;2022-07-12T01:11:36;15.10;;;10.33;;
12725;SDS011;6427;49.754;6.106;2022-07-12T01:14:04;13.47;;;10.43;;
12725;SDS011;6427;49.754;6.106;2022-07-12T01:16:31;14.27;;;10.50;;
12725;SDS011;6427;49.754;6.106;2022-07-12T01:19:00;13.23;;;10.33;;
12725;SDS011;6427;49.754;6.106;2022-07-12T01:21:27;16.83;;;11.03;;
12725;SDS011;6427;49.754;6.106;2022-07-12T01:23:56;15.43;;;11.43;;
12725;SDS011;6427;49.754;6.106;2022-07-12T01:26:24;14.83;;;10.83;;
12725;SDS011;6427;49.754;6.106;2022-07-12T01:28:52;14.47;;;11.03;;
12725;SDS011;6427;49.754;6.106;2022-07-12T01:31:19;13.07;;;10.57;;
12725;SDS011;6427;49.754;6.106;2022-07-12T01:33:47;12.63;;;9.70;;
12725;SDS011;6427;49.754;6.106;2022-07-12T01:36:15;14.33;;;9.87;;
12725;SDS011;6427;49.754;6.106;2022-07-12T01:38:43;15.87;;;10.70;;
12725;SDS011;6427;49.754;6.106;2022-07-12T01:41:10;13.53;;;9.50;;
12725;SDS011;6427;49.754;6.106;2022-07-12T01:43:39;14.00;;;10.40;;
12725;SDS011;6427;49.754;6.106;2022-07-12T01:46:06;13.20;;;10.27;;
12725;SDS011;6427;49.754;6.106;2022-07-12T01:48:34;15.53;;;10.23;;
12725;SDS011;6427;49.754;6.106;2022-07-12T01:51:02;14.23;;;9.37;;
12725;SDS011;6427;49.754;6.106;2022-07-12T01:53:30;15.32;;;12.37;;
12725;SDS011;6427;49.754;6.106;2022-07-12T01:55:58;13.63;;;10.57;;
12725;SDS011;6427;49.754;6.106;2022-07-12T01:58:25;14.83;;;10.33;;
12725;SDS011;6427;49.754;6.106;2022-07-12T02:00:53;16.03;;;10.77;;
12725;SDS011;6427;49.754;6.106;2022-07-12T02:03:20;14.63;;;10.60;;
12725;SDS011;6427;49.754;6.106;2022-07-12T02:05:49;16.67;;;12.98;;
12725;SDS011;6427;49.754;6.106;2022-07-12T02:08:16;16.17;;;11.10;;
12725;SDS011;6427;49.754;6.106;2022-07-12T02:10:44;15.35;;;11.90;;
12725;SDS011;6427;49.754;6.106;2022-07-12T02:13:11;15.50;;;10.63;;
12725;SDS011;6427;49.754;6.106;2022-07-12T02:15:39;14.07;;;10.23;;
12725;SDS011;6427;49.754;6.106;2022-07-12T02:18:07;16.65;;;13.00;;
12725;SDS011;6427;49.754;6.106;2022-07-12T02:20:34;13.63;;;10.30;;
12725;SDS011;6427;49.754;6.106;2022-07-12T02:23:02;15.97;;;10.83;;
12725;SDS011;6427;49.754;6.106;2022-07-12T02:25:30;14.20;;;10.57;;
12725;SDS011;6427;49.754;6.106;2022-07-12T02:27:58;14.90;;;10.73;;
12725;SDS011;6427;49.754;6.106;2022-07-12T02:30:25;15.20;;;10.73;;
12725;SDS011;6427;49.754;6.106;2022-07-12T02:32:53;14.53;;;10.60;;
12725;SDS011;6427;49.754;6.106;2022-07-12T02:35:21;14.97;;;10.47;;
12725;SDS011;6427;49.754;6.106;2022-07-12T02:37:48;13.77;;;10.90;;
12725;SDS011;6427;49.754;6.106;2022-07-12T02:40:16;14.40;;;10.93;;
12725;SDS011;6427;49.754;6.106;2022-07-12T02:43:02;14.50;;;10.47;;
12725;SDS011;6427;49.754;6.106;2022-07-12T02:45:30;15.87;;;11.07;;
12725;SDS011;6427;49.754;6.106;2022-07-12T02:47:58;15.50;;;11.30;;
12725;SDS011;6427;49.754;6.106;2022-07-12T02:50:27;16.10;;;11.63;;
12725;SDS011;6427;49.754;6.106;2022-07-12T02:52:54;16.63;;;11.93;;
12725;SDS011;6427;49.754;6.106;2022-07-12T02:55:22;17.17;;;12.67;;
12725;SDS011;6427;49.754;6.106;2022-07-12T02:57:50;17.97;;;11.97;;
12725;SDS011;6427;49.754;6.106;2022-07-12T03:00:17;17.17;;;12.17;;
12725;SDS011;6427;49.754;6.106;2022-07-12T03:02:45;14.17;;;10.57;;
12725;SDS011;6427;49.754;6.106;2022-07-12T03:05:12;15.67;;;11.17;;
12725;SDS011;6427;49.754;6.106;2022-07-12T03:07:40;16.07;;;10.97;;
12725;SDS011;6427;49.754;6.106;2022-07-12T03:10:08;15.57;;;11.50;;
12725;SDS011;6427;49.754;6.106;2022-07-12T03:12:35;15.03;;;10.67;;
12725;SDS011;6427;49.754;6.106;2022-07-12T03:15:03;17.33;;;13.50;;
12725;SDS011;6427;49.754;6.106;2022-07-12T03:17:31;16.33;;;11.47;;
12725;SDS011;6427;49.754;6.106;2022-07-12T03:19:58;13.53;;;10.43;;
12725;SDS011;6427;49.754;6.106;2022-07-12T03:22:26;14.70;;;10.83;;
12725;SDS011;6427;49.754;6.106;2022-07-12T03:24:53;15.80;;;10.70;;
12725;SDS011;6427;49.754;6.106;2022-07-12T03:27:21;16.03;;;10.47;;
12725;SDS011;6427;49.754;6.106;2022-07-12T03:29:49;17.00;;;11.13;;
12725;SDS011;6427;49.754;6.106;2022-07-12T03:32:18;13.73;;;10.07;;
12725;SDS011;6427;49.754;6.106;2022-07-12T03:34:45;17.67;;;10.83;;
12725;SDS011;6427;49.754;6.106;2022-07-12T03:37:13;16.30;;;11.23;;
12725;SDS011;6427;49.754;6.106;2022-07-12T03:39:41;15.77;;;11.17;;
12725;SDS011;6427;49.754;6.106;2022-07-12T03:42:09;16.13;;;11.47;;
12725;SDS011;6427;49.754;6.106;2022-07-12T03:44:37;18.23;;;12.73;;
12725;SDS011;6427;49.754;6.106;2022-07-12T03:47:05;18.62;;;14.48;;
12725;SDS011;6427;49.754;6.106;2022-07-12T03:49:33;15.60;;;11.70;;
12725;SDS011;6427;49.754;6.106;2022-07-12T03:52:01;18.25;;;13.77;;
12725;SDS011;6427;49.754;6.106;2022-07-12T03:54:29;17.20;;;11.77;;
12725;SDS011;6427;49.754;6.106;2022-07-12T03:56:57;15.70;;;10.83;;
12725;SDS011;6427;49.754;6.106;2022-07-12T03:59:43;13.60;;;10.33;;
12725;SDS011;6427;49.754;6.106;2022-07-12T04:02:10;15.43;;;11.03;;
12725;SDS011;6427;49.754;6.106;2022-07-12T04:04:38;16.43;;;10.43;;
12725;SDS011;6427;49.754;6.106;2022-07-12T04:07:05;16.10;;;11.17;;
12725;SDS011;6427;49.754;6.106;2022-07-12T04:09:33;17.42;;;13.57;;
12725;SDS011;6427;49.754;6.106;2022-07-12T04:12:01;16.30;;;11.27;;
12725;SDS011;6427;49.754;6.106;2022-07-12T04:14:29;18.83;;;10.63;;
12725;SDS011;6427;49.754;6.106;2022-07-12T04:16:58;17.00;;;10.43;;
12725;SDS011;6427;49.754;6.106;2022-07-12T04:19:25;15.33;;;10.93;;
12725;SDS011;6427;49.754;6.106;2022-07-12T04:21:56;16.50;;;10.27;;
12725;SDS011;6427;49.754;6.106;2022-07-12T04:24:23;16.40;;;10.73;;
12725;SDS011;6427;49.754;6.106;2022-07-12T04:26:52;14.40;;;9.93;;
12725;SDS011;6427;49.754;6.106;2022-07-12T04:29:20;17.12;;;13.07;;
12725;SDS011;6427;49.754;6.106;2022-07-12T04:31:48;19.73;;;11.30;;
12725;SDS011;6427;49.754;6.106;2022-07-12T04:34:15;17.12;;;13.48;;
12725;SDS011;6427;49.754;6.106;2022-07-12T04:36:46;20.83;;;12.40;;
12725;SDS011;6427;49.754;6.106;2022-07-12T04:39:13;18.98;;;14.45;;
12725;SDS011;6427;49.754;6.106;2022-07-12T04:41:41;17.37;;;11.77;;
12725;SDS011;6427;49.754;6.106;2022-07-12T04:44:09;16.07;;;10.93;;
12725;SDS011;6427;49.754;6.106;2022-07-12T04:46:38;16.50;;;11.57;;
12725;SDS011;6427;49.754;6.106;2022-07-12T04:49:05;16.57;;;11.47;;
12725;SDS011;6427;49.754;6.106;2022-07-12T04:51:33;17.00;;;10.27;;
12725;SDS011;6427;49.754;6.106;2022-07-12T04:54:00;17.93;;;10.57;;
12725;SDS011;6427;49.754;6.106;2022-07-12T04:56:28;17.70;;;13.68;;
12725;SDS011;6427;49.754;6.106;2022-07-12T04:58:56;50.28;;;33.03;;
12725;SDS011;6427;49.754;6.106;2022-07-12T05:01:24;18.83;;;12.07;;
12725;SDS011;6427;49.754;6.106;2022-07-12T05:03:52;18.17;;;12.13;;
12725;SDS011;6427;49.754;6.106;2022-07-12T05:06:19;16.90;;;11.13;;
12725;SDS011;6427;49.754;6.106;2022-07-12T05:08:48;16.30;;;12.07;;
12725;SDS011;6427;49.754;6.106;2022-07-12T05:11:16;19.37;;;12.90;;
12725;SDS011;6427;49.754;6.106;2022-07-12T05:13:45;19.30;;;12.23;;
12725;SDS011;6427;49.754;6.106;2022-07-12T05:16:12;20.10;;;13.23;;
12725;SDS011;6427;49.754;6.106;2022-07-12T05:18:40;22.05;;;16.50;;
12725;SDS011;6427;49.754;6.106;2022-07-12T05:21:07;22.40;;;14.57;;
12725;SDS011;6427;49.754;6.106;2022-07-12T05:23:35;21.20;;;14.80;;
12725;SDS011;6427;49.754;6.106;2022-07-12T05:26:03;23.45;;;17.23;;
12725;SDS011;6427;49.754;6.106;2022-07-12T05:28:32;25.07;;;15.30;;
12725;SDS011;6427;49.754;6.106;2022-07-12T05:31:00;20.33;;;14.07;;
12725;SDS011;6427;49.754;6.106;2022-07-12T05:33:28;19.50;;;14.23;;
12725;SDS011;6427;49.754;6.106;2022-07-12T05:35:56;21.98;;;16.98;;
12725;SDS011;6427;49.754;6.106;2022-07-12T05:38:24;20.47;;;15.53;;
12725;SDS011;6427;49.754;6.106;2022-07-12T05:40:52;20.43;;;14.53;;
12725;SDS011;6427;49.754;6.106;2022-07-12T05:43:20;21.33;;;16.73;;
12725;SDS011;6427;49.754;6.106;2022-07-12T05:45:48;23.80;;;15.37;;
12725;SDS011;6427;49.754;6.106;2022-07-12T05:48:16;19.90;;;13.73;;
12725;SDS011;6427;49.754;6.106;2022-07-12T05:50:44;21.40;;;16.87;;
12725;SDS011;6427;49.754;6.106;2022-07-12T05:53:12;19.50;;;14.50;;
12725;SDS011;6427;49.754;6.106;2022-07-12T05:55:52;25.13;;;14.33;;
12725;SDS011;6427;49.754;6.106;2022-07-12T05:58:17;19.70;;;14.30;;
12725;SDS011;6427;49.754;6.106;2022-07-12T06:00:45;20.13;;;14.77;;
12725;SDS011;6427;49.754;6.106;2022-07-12T06:03:13;20.50;;;15.37;;
12725;SDS011;6427;49.754;6.106;2022-07-12T06:05:40;18.90;;;14.77;;
12725;SDS011;6427;49.754;6.106;2022-07-12T06:08:08;24.45;;;17.85;;
12725;SDS011;6427;49.754;6.106;2022-07-12T06:10:35;23.70;;;16.57;;
12725;SDS011;6427;49.754;6.106;2022-07-12T06:13:04;23.10;;;16.03;;
12725;SDS011;6427;49.754;6.106;2022-07-12T06:15:31;20.70;;;15.80;;
12725;SDS011;6427;49.754;6.106;2022-07-12T06:17:59;22.85;;;18.33;;
12725;SDS011;6427;49.754;6.106;2022-07-12T06:20:27;20.70;;;16.07;;
12725;SDS011;6427;49.754;6.106;2022-07-12T06:22:54;23.42;;;18.08;;
12725;SDS011;6427;49.754;6.106;2022-07-12T06:25:22;21.10;;;15.30;;
12725;SDS011;6427;49.754;6.106;2022-07-12T06:27:50;21.07;;;15.83;;
12725;SDS011;6427;49.754;6.106;2022-07-12T06:30:18;19.63;;;14.00;;
12725;SDS011;6427;49.754;6.106;2022-07-12T06:32:46;20.27;;;14.47;;
12725;SDS011;6427;49.754;6.106;2022-07-12T06:35:16;23.90;;;15.57;;
12725;SDS011;6427;49.754;6.106;2022-07-12T06:37:43;18.03;;;14.70;;
12725;SDS011;6427;49.754;6.106;2022-07-12T06:40:11;18.57;;;14.53;;
12725;SDS011;6427;49.754;6.106;2022-07-12T06:42:39;19.60;;;15.17;;
12725;SDS011;6427;49.754;6.106;2022-07-12T06:45:06;20.17;;;14.27;;
12725;SDS011;6427;49.754;6.106;2022-07-12T06:47:34;20.93;;;15.40;;
12725;SDS011;6427;49.754;6.106;2022-07-12T06:50:02;23.02;;;16.77;;
12725;SDS011;6427;49.754;6.106;2022-07-12T06:52:29;18.40;;;14.83;;
12725;SDS011;6427;49.754;6.106;2022-07-12T06:54:57;19.87;;;15.23;;
12725;SDS011;6427;49.754;6.106;2022-07-12T06:57:25;24.03;;;14.27;;
12725;SDS011;6427;49.754;6.106;2022-07-12T06:59:57;19.57;;;14.33;;
12725;SDS011;6427;49.754;6.106;2022-07-12T07:02:24;19.30;;;13.33;;
12725;SDS011;6427;49.754;6.106;2022-07-12T07:04:52;19.63;;;15.03;;
12725;SDS011;6427;49.754;6.106;2022-07-12T07:07:20;17.60;;;12.67;;
12725;SDS011;6427;49.754;6.106;2022-07-12T07:09:48;17.40;;;13.37;;
12725;SDS011;6427;49.754;6.106;2022-07-12T07:12:16;16.98;;;15.02;;
12725;SDS011;6427;49.754;6.106;2022-07-12T07:14:44;18.80;;;14.27;;
12725;SDS011;6427;49.754;6.106;2022-07-12T07:17:11;18.90;;;12.27;;
12725;SDS011;6427;49.754;6.106;2022-07-12T07:19:39;15.83;;;11.67;;
12725;SDS011;6427;49.754;6.106;2022-07-12T07:22:06;16.70;;;13.37;;
12725;SDS011;6427;49.754;6.106;2022-07-12T07:24:35;21.12;;;14.98;;
12725;SDS011;6427;49.754;6.106;2022-07-12T07:27:02;16.70;;;12.93;;
12725;SDS011;6427;49.754;6.106;2022-07-12T07:29:30;17.53;;;11.83;;
12725;SDS011;6427;49.754;6.106;2022-07-12T07:32:16;13.97;;;9.73;;
12725;SDS011;6427;49.754;6.106;2022-07-12T07:34:43;13.40;;;10.93;;
12725;SDS011;6427;49.754;6.106;2022-07-12T07:37:12;17.80;;;11.43;;
12725;SDS011;6427;49.754;6.106;2022-07-12T07:39:39;12.43;;;10.70;;
12725;SDS011;6427;49.754;6.106;2022-07-12T07:42:07;10.80;;;9.43;;
12725;SDS011;6427;49.754;6.106;2022-07-12T07:44:34;11.67;;;8.83;;
12725;SDS011;6427;49.754;6.106;2022-07-12T07:47:02;11.77;;;9.67;;
12725;SDS011;6427;49.754;6.106;2022-07-12T07:49:30;19.60;;;10.17;;
12725;SDS011;6427;49.754;6.106;2022-07-12T07:51:57;11.00;;;8.43;;
12725;SDS011;6427;49.754;6.106;2022-07-12T07:54:25;12.17;;;8.10;;
12725;SDS011;6427;49.754;6.106;2022-07-12T07:56:53;8.73;;;7.83;;
12725;SDS011;6427;49.754;6.106;2022-07-12T07:59:21;9.87;;;7.87;;
12725;SDS011;6427;49.754;6.106;2022-07-12T08:01:48;7.97;;;6.75;;
12725;SDS011;6427;49.754;6.106;2022-07-12T08:04:16;8.00;;;6.03;;
12725;SDS011;6427;49.754;6.106;2022-07-12T08:06:44;7.67;;;5.60;;
12725;SDS011;6427;49.754;6.106;2022-07-12T08:09:11;7.40;;;6.53;;
12725;SDS011;6427;49.754;6.106;2022-07-12T08:11:40;9.05;;;5.87;;
12725;SDS011;6427;49.754;6.106;2022-07-12T08:14:07;8.50;;;5.47;;
12725;SDS011;6427;49.754;6.106;2022-07-12T08:16:35;8.57;;;6.00;;
12725;SDS011;6427;49.754;6.106;2022-07-12T08:19:03;6.30;;;5.50;;
12725;SDS011;6427;49.754;6.106;2022-07-12T08:21:30;6.97;;;6.03;;
12725;SDS011;6427;49.754;6.106;2022-07-12T08:23:58;8.10;;;4.93;;
12725;SDS011;6427;49.754;6.106;2022-07-12T08:26:25;9.20;;;5.70;;
12725;SDS011;6427;49.754;6.106;2022-07-12T08:28:53;8.83;;;4.23;;
12725;SDS011;6427;49.754;6.106;2022-07-12T08:31:20;5.30;;;4.53;;
12725;SDS011;6427;49.754;6.106;2022-07-12T08:33:48;4.43;;;4.03;;
12725;SDS011;6427;49.754;6.106;2022-07-12T08:36:16;5.50;;;5.00;;
12725;SDS011;6427;49.754;6.106;2022-07-12T08:38:44;5.50;;;4.63;;
12725;SDS011;6427;49.754;6.106;2022-07-12T08:41:12;4.67;;;4.27;;
12725;SDS011;6427;49.754;6.106;2022-07-12T08:43:39;5.40;;;4.90;;
12725;SDS011;6427;49.754;6.106;2022-07-12T08:46:11;5.20;;;4.50;;
12725;SDS011;6427;49.754;6.106;2022-07-12T08:48:35;6.90;;;4.70;;
12725;SDS011;6427;49.754;6.106;2022-07-12T08:51:03;5.23;;;4.73;;
12725;SDS011;6427;49.754;6.106;2022-07-12T08:53:30;5.35;;;4.80;;
12725;SDS011;6427;49.754;6.106;2022-07-12T08:55:57;6.12;;;4.90;;
12725;SDS011;6427;49.754;6.106;2022-07-12T08:58:25;4.73;;;4.27;;
12725;SDS011;6427;49.754;6.106;2022-07-12T09:00:52;5.30;;;4.77;;
12725;SDS011;6427;49.754;6.106;2022-07-12T09:03:21;5.37;;;4.87;;
12725;SDS011;6427;49.754;6.106;2022-07-12T09:05:49;4.40;;;4.00;;
12725;SDS011;6427;49.754;6.106;2022-07-12T09:08:16;5.77;;;3.70;;
12725;SDS011;6427;49.754;6.106;2022-07-12T09:13:17;6.10;;;3.80;;
12725;SDS011;6427;49.754;6.106;2022-07-12T09:15:45;3.37;;;3.07;;
12725;SDS011;6427;49.754;6.106;2022-07-12T09:18:16;4.93;;;3.00;;
12725;SDS011;6427;49.754;6.106;2022-07-12T09:20:50;3.50;;;3.20;;
12725;SDS011;6427;49.754;6.106;2022-07-12T09:23:12;4.53;;;3.10;;
12725;SDS011;6427;49.754;6.106;2022-07-12T09:25:43;3.77;;;2.53;;
12725;SDS011;6427;49.754;6.106;2022-07-12T09:28:10;2.83;;;2.63;;
12725;SDS011;6427;49.754;6.106;2022-07-12T09:30:49;3.50;;;2.90;;
12725;SDS011;6427;49.754;6.106;2022-07-12T09:33:19;3.87;;;2.67;;
12725;SDS011;6427;49.754;6.106;2022-07-12T09:36:05;4.50;;;3.17;;
12725;SDS011;6427;49.754;6.106;2022-07-12T09:38:49;3.60;;;3.30;;
12725;SDS011;6427;49.754;6.106;2022-07-12T09:41:06;2.60;;;2.40;;
12725;SDS011;6427;49.754;6.106;2022-07-12T09:43:34;3.47;;;3.10;;
12725;SDS011;6427;49.754;6.106;2022-07-12T09:46:02;4.57;;;2.80;;
12725;SDS011;6427;49.754;6.106;2022-07-12T09:48:30;4.73;;;3.30;;
12725;SDS011;6427;49.754;6.106;2022-07-12T09:50:58;3.07;;;2.77;;
12725;SDS011;6427;49.754;6.106;2022-07-12T09:53:27;4.67;;;3.10;;
12725;SDS011;6427;49.754;6.106;2022-07-12T09:55:54;3.83;;;3.00;;
12725;SDS011;6427;49.754;6.106;2022-07-12T09:58:26;3.50;;;2.93;;
12725;SDS011;6427;49.754;6.106;2022-07-12T10:00:54;3.53;;;3.17;;
12725;SDS011;6427;49.754;6.106;2022-07-12T10:03:22;6.07;;;3.40;;
12725;SDS011;6427;49.754;6.106;2022-07-12T10:05:51;6.17;;;2.90;;
12725;SDS011;6427;49.754;6.106;2022-07-12T10:08:19;2.90;;;2.60;;
12725;SDS011;6427;49.754;6.106;2022-07-12T10:10:47;5.27;;;2.90;;
12725;SDS011;6427;49.754;6.106;2022-07-12T10:13:15;3.40;;;3.10;;
12725;SDS011;6427;49.754;6.106;2022-07-12T10:15:42;2.70;;;2.50;;
12725;SDS011;6427;49.754;6.106;2022-07-12T10:18:14;2.53;;;2.30;;
12725;SDS011;6427;49.754;6.106;2022-07-12T10:20:41;2.50;;;2.30;;
12725;SDS011;6427;49.754;6.106;2022-07-12T10:23:47;5.13;;;2.50;;
12725;SDS011;6427;49.754;6.106;2022-07-12T10:25:47;2.50;;;2.30;;
12725;SDS011;6427;49.754;6.106;2022-07-12T10:28:15;3.42;;;2.65;;
12725;SDS011;6427;49.754;6.106;2022-07-12T10:30:43;3.93;;;2.60;;
12725;SDS011;6427;49.754;6.106;2022-07-12T10:33:16;4.20;;;2.60;;
12725;SDS011;6427;49.754;6.106;2022-07-12T10:36:03;2.67;;;2.23;;
12725;SDS011;6427;49.754;6.106;2022-07-12T10:38:29;3.43;;;3.03;;
12725;SDS011;6427;49.754;6.106;2022-07-12T10:40:58;3.08;;;2.85;;
12725;SDS011;6427;49.754;6.106;2022-07-12T10:43:26;3.70;;;3.00;;
12725;SDS011;6427;49.754;6.106;2022-07-12T10:46:17;2.77;;;2.57;;
12725;SDS011;6427;49.754;6.106;2022-07-12T10:48:45;3.67;;;2.40;;
12725;SDS011;6427;49.754;6.106;2022-07-12T10:51:13;2.70;;;2.50;;
12725;SDS011;6427;49.754;6.106;2022-07-12T10:53:40;3.80;;;2.50;;
12725;SDS011;6427;49.754;6.106;2022-07-12T10:56:12;2.50;;;2.30;;
12725;SDS011;6427;49.754;6.106;2022-07-12T10:58:40;2.00;;;1.90;;
12725;SDS011;6427;49.754;6.106;2022-07-12T11:01:14;2.00;;;1.90;;
12725;SDS011;6427;49.754;6.106;2022-07-12T11:03:43;4.17;;;2.17;;
12725;SDS011;6427;49.754;6.106;2022-07-12T11:06:07;1.63;;;1.53;;
12725;SDS011;6427;49.754;6.106;2022-07-12T11:11:21;1.80;;;1.70;;
12725;SDS011;6427;49.754;6.106;2022-07-12T11:13:48;2.50;;;1.77;;
12725;SDS011;6427;49.754;6.106;2022-07-12T11:16:15;3.23;;;1.60;;
12725;SDS011;6427;49.754;6.106;2022-07-12T11:18:44;1.90;;;1.80;;
12725;SDS011;6427;49.754;6.106;2022-07-12T11:21:12;1.30;;;1.20;;
12725;SDS011;6427;49.754;6.106;2022-07-12T11:23:39;4.67;;;1.63;;
12725;SDS011;6427;49.754;6.106;2022-07-12T11:26:11;1.87;;;1.77;;
12725;SDS011;6427;49.754;6.106;2022-07-12T11:28:38;1.77;;;1.67;;
12725;SDS011;6427;49.754;6.106;2022-07-12T11:31:07;2.20;;;2.03;;
12725;SDS011;6427;49.754;6.106;2022-07-12T11:33:35;2.43;;;1.40;;
12725;SDS011;6427;49.754;6.106;2022-07-12T11:36:04;1.90;;;1.47;;
12725;SDS011;6427;49.754;6.106;2022-07-12T11:38:34;1.70;;;1.60;;
12725;SDS011;6427;49.754;6.106;2022-07-12T11:41:02;1.70;;;1.60;;
12725;SDS011;6427;49.754;6.106;2022-07-12T11:43:29;2.83;;;1.30;;
12725;SDS011;6427;49.754;6.106;2022-07-12T11:45:56;2.93;;;1.60;;
12725;SDS011;6427;49.754;6.106;2022-07-12T11:48:24;1.47;;;1.37;;
12725;SDS011;6427;49.754;6.106;2022-07-12T11:50:51;3.60;;;1.87;;
12725;SDS011;6427;49.754;6.106;2022-07-12T11:53:25;1.80;;;1.70;;
12725;SDS011;6427;49.754;6.106;2022-07-12T11:55:53;1.90;;;1.70;;
12725;SDS011;6427;49.754;6.106;2022-07-12T11:58:21;2.00;;;1.90;;
12725;SDS011;6427;49.754;6.106;2022-07-12T12:00:49;2.20;;;2.00;;
12725;SDS011;6427;49.754;6.106;2022-07-12T12:03:17;3.40;;;1.93;;
12725;SDS011;6427;49.754;6.106;2022-07-12T12:05:49;3.97;;;1.50;;
12725;SDS011;6427;49.754;6.106;2022-07-12T12:08:15;3.37;;;1.60;;
12725;SDS011;6427;49.754;6.106;2022-07-12T12:10:52;2.00;;;1.80;;
12725;SDS011;6427;49.754;6.106;2022-07-12T12:13:13;2.20;;;1.90;;
12725;SDS011;6427;49.754;6.106;2022-07-12T12:15:39;2.00;;;1.80;;
12725;SDS011;6427;49.754;6.106;2022-07-12T12:18:07;2.67;;;1.70;;
12725;SDS011;6427;49.754;6.106;2022-07-12T12:20:35;2.40;;;1.70;;
12725;SDS011;6427;49.754;6.106;2022-07-12T12:23:10;1.90;;;1.70;;
12725;SDS011;6427;49.754;6.106;2022-07-12T12:25:34;12.90;;;2.40;;
12725;SDS011;6427;49.754;6.106;2022-07-12T12:28:03;2.87;;;1.90;;
12725;SDS011;6427;49.754;6.106;2022-07-12T12:30:30;1.50;;;1.40;;
12725;SDS011;6427;49.754;6.106;2022-07-12T12:32:58;2.47;;;1.60;;
12725;SDS011;6427;49.754;6.106;2022-07-12T12:35:31;2.67;;;1.60;;
12725;SDS011;6427;49.754;6.106;2022-07-12T12:37:59;3.17;;;1.57;;
12725;SDS011;6427;49.754;6.106;2022-07-12T12:40:27;2.50;;;1.50;;
12725;SDS011;6427;49.754;6.106;2022-07-12T12:43:05;2.47;;;1.63;;
12725;SDS011;6427;49.754;6.106;2022-07-12T12:45:50;2.12;;;1.90;;
12725;SDS011;6427;49.754;6.106;2022-07-12T12:48:24;3.30;;;1.43;;
12725;SDS011;6427;49.754;6.106;2022-07-12T12:50:51;2.30;;;1.87;;
12725;SDS011;6427;49.754;6.106;2022-07-12T12:53:22;2.12;;;1.80;;
12725;SDS011;6427;49.754;6.106;2022-07-12T12:55:50;2.10;;;1.90;;
12725;SDS011;6427;49.754;6.106;2022-07-12T12:58:21;2.60;;;1.77;;
12725;SDS011;6427;49.754;6.106;2022-07-12T13:00:49;1.80;;;1.70;;
12725;SDS011;6427;49.754;6.106;2022-07-12T13:03:17;6.20;;;1.87;;
12725;SDS011;6427;49.754;6.106;2022-07-12T13:05:44;1.73;;;1.60;;
12725;SDS011;6427;49.754;6.106;2022-07-12T13:08:13;2.53;;;1.60;;
12725;SDS011;6427;49.754;6.106;2022-07-12T13:10:40;2.90;;;1.47;;
12725;SDS011;6427;49.754;6.106;2022-07-12T13:13:09;1.40;;;1.30;;
12725;SDS011;6427;49.754;6.106;2022-07-12T13:15:36;1.40;;;1.30;;
12725;SDS011;6427;49.754;6.106;2022-07-12T13:18:04;1.53;;;1.33;;
12725;SDS011;6427;49.754;6.106;2022-07-12T13:20:31;2.50;;;1.40;;
12725;SDS011;6427;49.754;6.106;2022-07-12T13:22:59;1.40;;;1.30;;
12725;SDS011;6427;49.754;6.106;2022-07-12T13:25:26;1.50;;;1.40;;
12725;SDS011;6427;49.754;6.106;2022-07-12T13:27:54;2.67;;;1.60;;
12725;SDS011;6427;49.754;6.106;2022-07-12T13:30:22;1.17;;;1.13;;
12725;SDS011;6427;49.754;6.106;2022-07-12T13:32:49;3.67;;;1.58;;
12725;SDS011;6427;49.754;6.106;2022-07-12T13:35:17;1.93;;;1.50;;
12725;SDS011;6427;49.754;6.106;2022-07-12T13:37:45;1.90;;;1.33;;
12725;SDS011;6427;49.754;6.106;2022-07-12T13:40:13;4.00;;;1.50;;
12725;SDS011;6427;49.754;6.106;2022-07-12T13:42:45;2.80;;;1.07;;
12725;SDS011;6427;49.754;6.106;2022-07-12T13:45:15;1.57;;;1.47;;
12725;SDS011;6427;49.754;6.106;2022-07-12T13:47:43;3.13;;;1.30;;
12725;SDS011;6427;49.754;6.106;2022-07-12T13:50:11;1.43;;;1.03;;
12725;SDS011;6427;49.754;6.106;2022-07-12T13:52:38;1.15;;;1.05;;
12725;SDS011;6427;49.754;6.106;2022-07-12T13:55:05;2.47;;;1.40;;
12725;SDS011;6427;49.754;6.106;2022-07-12T13:57:34;1.00;;;1.00;;
12725;SDS011;6427;49.754;6.106;2022-07-12T14:00:02;1.20;;;1.20;;
12725;SDS011;6427;49.754;6.106;2022-07-12T14:02:30;3.17;;;1.00;;
12725;SDS011;6427;49.754;6.106;2022-07-12T14:04:57;1.87;;;1.30;;
12725;SDS011;6427;49.754;6.106;2022-07-12T14:07:25;2.30;;;0.90;;
12725;SDS011;6427;49.754;6.106;2022-07-12T14:09:53;1.03;;;1.03;;
12725;SDS011;6427;49.754;6.106;2022-07-12T14:12:21;1.25;;;1.15;;
12725;SDS011;6427;49.754;6.106;2022-07-12T14:14:49;1.30;;;0.97;;
12725;SDS011;6427;49.754;6.106;2022-07-12T14:17:35;2.10;;;1.10;;
12725;SDS011;6427;49.754;6.106;2022-07-12T14:20:02;0.87;;;0.87;;
12725;SDS011;6427;49.754;6.106;2022-07-12T14:22:30;1.90;;;0.73;;
12725;SDS011;6427;49.754;6.106;2022-07-12T14:24:59;1.00;;;0.83;;
12725;SDS011;6427;49.754;6.106;2022-07-12T14:27:26;1.60;;;0.97;;
12725;SDS011;6427;49.754;6.106;2022-07-12T14:29:54;1.17;;;0.80;;
12725;SDS011;6427;49.754;6.106;2022-07-12T14:32:22;0.70;;;0.70;;
12725;SDS011;6427;49.754;6.106;2022-07-12T14:34:49;0.80;;;0.73;;
12725;SDS011;6427;49.754;6.106;2022-07-12T14:37:17;0.80;;;0.80;;
12725;SDS011;6427;49.754;6.106;2022-07-12T14:39:45;1.07;;;0.60;;
12725;SDS011;6427;49.754;6.106;2022-07-12T14:42:13;0.97;;;0.80;;
12725;SDS011;6427;49.754;6.106;2022-07-12T14:44:41;2.22;;;1.00;;
12725;SDS011;6427;49.754;6.106;2022-07-12T14:47:09;0.77;;;0.77;;
12725;SDS011;6427;49.754;6.106;2022-07-12T14:49:37;1.70;;;0.90;;
12725;SDS011;6427;49.754;6.106;2022-07-12T14:52:05;4.00;;;0.70;;
12725;SDS011;6427;49.754;6.106;2022-07-12T14:54:35;0.80;;;0.80;;
12725;SDS011;6427;49.754;6.106;2022-07-12T14:57:03;0.90;;;0.90;;
12725;SDS011;6427;49.754;6.106;2022-07-12T14:59:30;0.83;;;0.70;;